sensor_id;sensor_type;location;lat;lon;timestamp;pressure;altitude;pressure_sealevel;temperature;humidity
58622;BME280;44389;51.578;5.456;2023-12-04T00:00:45;101157.72;;;-1.21;100.00
58622;BME280;44389;51.578;5.456;2023-12-04T00:03:10;101158.59;;;-1.20;100.00
58622;BME280;44389;51.578;5.456;2023-12-04T00:05:35;101140.91;;;-1.20;100.00
58622;BME280;44389;51.578;5.456;2023-12-04T00:08:01;101150.25;;;-1.19;100.00
58622;BME280;44389;51.578;5.456;2023-12-04T00:10:26;101156.06;;;-1.20;100.00
58622;BME280;44389;51.578;5.456;2023-12-04T00:12:51;101146.88;;;-1.20;100.00
58622;BME280;44389;51.578;5.456;2023-12-04T00:15:19;101147.72;;;-1.19;100.00
58622;BME280;44389;51.578;5.456;2023-12-04T00:17:44;101136.09;;;-1.17;100.00
58622;BME280;44389;51.578;5.456;2023-12-04T00:20:09;101138.53;;;-1.19;100.00
58622;BME280;44389;51.578;5.456;2023-12-04T00:22:36;101146.22;;;-1.17;100.00
58622;BME280;44389;51.578;5.456;2023-12-04T00:25:03;101136.09;;;-1.17;100.00
58622;BME280;44389;51.578;5.456;2023-12-04T00:27:29;101133.56;;;-1.17;100.00
58622;BME280;44389;51.578;5.456;2023-12-04T00:29:54;101129.41;;;-1.17;100.00
58622;BME280;44389;51.578;5.456;2023-12-04T00:32:19;101132.81;;;-1.16;100.00
58622;BME280;44389;51.578;5.456;2023-12-04T00:34:45;101140.53;;;-1.14;100.00
58622;BME280;44389;51.578;5.456;2023-12-04T00:37:10;101122.81;;;-1.14;100.00
58622;BME280;44389;51.578;5.456;2023-12-04T00:39:35;101122.06;;;-1.13;100.00
58622;BME280;44389;51.578;5.456;2023-12-04T00:42:00;101127.13;;;-1.13;100.00
58622;BME280;44389;51.578;5.456;2023-12-04T00:44:26;101120.28;;;-1.14;100.00
58622;BME280;44389;51.578;5.456;2023-12-04T00:46:51;101111.06;;;-1.14;100.00
58622;BME280;44389;51.578;5.456;2023-12-04T00:49:16;101107.78;;;-1.13;100.00
58622;BME280;44389;51.578;5.456;2023-12-04T00:51:42;101117.00;;;-1.13;100.00
58622;BME280;44389;51.578;5.456;2023-12-04T00:54:07;101107.66;;;-1.14;100.00
58622;BME280;44389;51.578;5.456;2023-12-04T00:56:33;101100.06;;;-1.14;100.00
58622;BME280;44389;51.578;5.456;2023-12-04T00:58:58;101101.06;;;-1.12;100.00
58622;BME280;44389;51.578;5.456;2023-12-04T01:01:23;101101.19;;;-1.11;100.00
58622;BME280;44389;51.578;5.456;2023-12-04T01:03:48;101093.63;;;-1.11;100.00
58622;BME280;44389;51.578;5.456;2023-12-04T01:06:23;101092.81;;;-1.10;100.00
58622;BME280;44389;51.578;5.456;2023-12-04T01:08:49;101091.19;;;-1.09;100.00
58622;BME280;44389;51.578;5.456;2023-12-04T01:11:16;101087.00;;;-1.09;100.00
58622;BME280;44389;51.578;5.456;2023-12-04T01:13:41;101085.25;;;-1.10;100.00
58622;BME280;44389;51.578;5.456;2023-12-04T01:16:07;101078.56;;;-1.09;100.00
58622;BME280;44389;51.578;5.456;2023-12-04T01:18:33;101086.25;;;-1.08;100.00
58622;BME280;44389;51.578;5.456;2023-12-04T01:20:58;101084.47;;;-1.09;100.00
58622;BME280;44389;51.578;5.456;2023-12-04T01:23:24;101081.94;;;-1.09;100.00
58622;BME280;44389;51.578;5.456;2023-12-04T01:25:49;101078.66;;;-1.08;100.00
58622;BME280;44389;51.578;5.456;2023-12-04T01:28:15;101075.38;;;-1.07;100.00
58622;BME280;44389;51.578;5.456;2023-12-04T01:30:40;101071.94;;;-1.07;100.00
58622;BME280;44389;51.578;5.456;2023-12-04T01:33:05;101066.78;;;-1.09;100.00
58622;BME280;44389;51.578;5.456;2023-12-04T01:35:30;101063.50;;;-1.08;100.00
58622;BME280;44389;51.578;5.456;2023-12-04T01:37:56;101065.25;;;-1.07;100.00
58622;BME280;44389;51.578;5.456;2023-12-04T01:40:21;101058.53;;;-1.06;100.00
58622;BME280;44389;51.578;5.456;2023-12-04T01:42:46;101056.13;;;-1.05;100.00
58622;BME280;44389;51.578;5.456;2023-12-04T01:45:12;101054.38;;;-1.06;100.00
58622;BME280;44389;51.578;5.456;2023-12-04T01:47:37;101059.56;;;-1.04;100.00
58622;BME280;44389;51.578;5.456;2023-12-04T01:50:03;101063.72;;;-1.05;100.00
58622;BME280;44389;51.578;5.456;2023-12-04T01:52:29;101050.31;;;-1.04;100.00
58622;BME280;44389;51.578;5.456;2023-12-04T01:54:55;101051.97;;;-1.04;100.00
58622;BME280;44389;51.578;5.456;2023-12-04T01:57:20;101052.84;;;-1.04;100.00
58622;BME280;44389;51.578;5.456;2023-12-04T01:59:46;101046.28;;;-1.02;100.00
58622;BME280;44389;51.578;5.456;2023-12-04T02:02:12;101040.31;;;-1.02;100.00
58622;BME280;44389;51.578;5.456;2023-12-04T02:04:38;101036.16;;;-1.02;100.00
58622;BME280;44389;51.578;5.456;2023-12-04T02:07:04;101030.34;;;-1.01;100.00
58622;BME280;44389;51.578;5.456;2023-12-04T02:09:30;101034.63;;;-1.00;100.00
58622;BME280;44389;51.578;5.456;2023-12-04T02:11:56;101024.50;;;-1.00;100.00
58622;BME280;44389;51.578;5.456;2023-12-04T02:14:22;101026.25;;;-0.98;100.00
58622;BME280;44389;51.578;5.456;2023-12-04T02:16:47;101026.25;;;-0.98;100.00
58622;BME280;44389;51.578;5.456;2023-12-04T02:19:13;101018.94;;;-0.95;100.00
58622;BME280;44389;51.578;5.456;2023-12-04T02:21:39;101012.88;;;-0.97;100.00
58622;BME280;44389;51.578;5.456;2023-12-04T02:24:05;101012.88;;;-0.97;100.00
58622;BME280;44389;51.578;5.456;2023-12-04T02:26:34;101008.69;;;-0.97;100.00
58622;BME280;44389;51.578;5.456;2023-12-04T02:29:07;101009.56;;;-0.96;100.00
58622;BME280;44389;51.578;5.456;2023-12-04T02:31:38;101008.69;;;-0.97;100.00
58622;BME280;44389;51.578;5.456;2023-12-04T02:34:06;101002.75;;;-0.97;100.00
58622;BME280;44389;51.578;5.456;2023-12-04T02:36:33;100997.91;;;-0.94;100.00
58622;BME280;44389;51.578;5.456;2023-12-04T02:39:00;100992.84;;;-0.94;100.00
58622;BME280;44389;51.578;5.456;2023-12-04T02:41:25;100993.75;;;-0.94;100.00
58622;BME280;44389;51.578;5.456;2023-12-04T02:43:50;100997.03;;;-0.95;100.00
58622;BME280;44389;51.578;5.456;2023-12-04T02:46:16;100991.34;;;-0.92;100.00
58622;BME280;44389;51.578;5.456;2023-12-04T02:48:41;100988.91;;;-0.91;100.00
58622;BME280;44389;51.578;5.456;2023-12-04T02:51:06;100985.50;;;-0.91;100.00
58622;BME280;44389;51.578;5.456;2023-12-04T02:53:32;100978.69;;;-0.92;100.00
58622;BME280;44389;51.578;5.456;2023-12-04T02:55:57;100976.16;;;-0.92;100.00
58622;BME280;44389;51.578;5.456;2023-12-04T02:58:22;100973.84;;;-0.89;100.00
58622;BME280;44389;51.578;5.456;2023-12-04T03:00:48;100969.44;;;-0.92;100.00
58622;BME280;44389;51.578;5.456;2023-12-04T03:03:13;100966.16;;;-0.91;100.00
58622;BME280;44389;51.578;5.456;2023-12-04T03:05:38;100959.47;;;-0.90;100.00
58622;BME280;44389;51.578;5.456;2023-12-04T03:08:03;100957.03;;;-0.89;100.00
58622;BME280;44389;51.578;5.456;2023-12-04T03:10:29;100952.84;;;-0.88;100.00
58622;BME280;44389;51.578;5.456;2023-12-04T03:12:54;100950.22;;;-0.90;100.00
58622;BME280;44389;51.578;5.456;2023-12-04T03:15:19;100945.78;;;-0.92;100.00
58622;BME280;44389;51.578;5.456;2023-12-04T03:17:44;100952.63;;;-0.91;100.00
58622;BME280;44389;51.578;5.456;2023-12-04T03:20:10;100944.78;;;-0.94;100.00
58622;BME280;44389;51.578;5.456;2023-12-04T03:22:36;100944.13;;;-0.92;100.00
58622;BME280;44389;51.578;5.456;2023-12-04T03:25:02;100931.63;;;-0.90;100.00
58622;BME280;44389;51.578;5.456;2023-12-04T03:27:27;100935.66;;;-0.92;100.00
58622;BME280;44389;51.578;5.456;2023-12-04T03:29:52;100929.84;;;-0.91;100.00
58622;BME280;44389;51.578;5.456;2023-12-04T03:32:18;100918.72;;;-0.93;100.00
58622;BME280;44389;51.578;5.456;2023-12-04T03:34:43;100916.31;;;-0.92;100.00
58622;BME280;44389;51.578;5.456;2023-12-04T03:37:08;100928.09;;;-0.92;100.00
58622;BME280;44389;51.578;5.456;2023-12-04T03:39:34;100914.56;;;-0.93;100.00
58622;BME280;44389;51.578;5.456;2023-12-04T03:41:59;100903.53;;;-0.93;100.00
58622;BME280;44389;51.578;5.456;2023-12-04T03:44:25;100903.53;;;-0.93;100.00
58622;BME280;44389;51.578;5.456;2023-12-04T03:46:50;100897.72;;;-0.92;100.00
58622;BME280;44389;51.578;5.456;2023-12-04T03:49:16;100898.59;;;-0.92;100.00
58622;BME280;44389;51.578;5.456;2023-12-04T03:51:42;100895.41;;;-0.89;100.00
58622;BME280;44389;51.578;5.456;2023-12-04T03:54:07;100879.38;;;-0.90;100.00
58622;BME280;44389;51.578;5.456;2023-12-04T03:56:32;100880.88;;;-0.92;100.00
58622;BME280;44389;51.578;5.456;2023-12-04T03:58:58;100880.78;;;-0.93;100.00
58622;BME280;44389;51.578;5.456;2023-12-04T04:01:23;100875.50;;;-0.96;100.00
58622;BME280;44389;51.578;5.456;2023-12-04T04:03:48;100880.53;;;-0.96;100.00
58622;BME280;44389;51.578;5.456;2023-12-04T04:06:13;100872.06;;;-0.97;100.00
58622;BME280;44389;51.578;5.456;2023-12-04T04:08:39;100879.53;;;-0.98;100.00
58622;BME280;44389;51.578;5.456;2023-12-04T04:11:04;100872.72;;;-1.00;100.00
58622;BME280;44389;51.578;5.456;2023-12-04T04:13:29;100876.78;;;-1.02;100.00
58622;BME280;44389;51.578;5.456;2023-12-04T04:15:55;100868.28;;;-1.02;100.00
58622;BME280;44389;51.578;5.456;2023-12-04T04:18:20;100865.75;;;-1.02;100.00
58622;BME280;44389;51.578;5.456;2023-12-04T04:20:45;100856.44;;;-1.03;100.00
58622;BME280;44389;51.578;5.456;2023-12-04T04:23:10;100855.53;;;-1.04;100.00
58622;BME280;44389;51.578;5.456;2023-12-04T04:25:36;100853.75;;;-1.05;100.00
58622;BME280;44389;51.578;5.456;2023-12-04T04:28:01;100851.88;;;-1.07;100.00
58622;BME280;44389;51.578;5.456;2023-12-04T04:30:26;100848.47;;;-1.08;100.00
58622;BME280;44389;51.578;5.456;2023-12-04T04:32:51;100842.66;;;-1.07;100.00
58622;BME280;44389;51.578;5.456;2023-12-04T04:35:17;100842.56;;;-1.08;100.00
58622;BME280;44389;51.578;5.456;2023-12-04T04:37:42;100844.19;;;-1.09;100.00
58622;BME280;44389;51.578;5.456;2023-12-04T04:40:08;100837.25;;;-1.11;100.00
58622;BME280;44389;51.578;5.456;2023-12-04T04:42:33;100828.91;;;-1.10;100.00
58622;BME280;44389;51.578;5.456;2023-12-04T04:44:58;100832.44;;;-1.08;100.00
58622;BME280;44389;51.578;5.456;2023-12-04T04:47:23;100834.97;;;-1.08;100.00
58622;BME280;44389;51.578;5.456;2023-12-04T04:49:49;100827.38;;;-1.08;100.00
58622;BME280;44389;51.578;5.456;2023-12-04T04:52:14;100819.91;;;-1.07;100.00
58622;BME280;44389;51.578;5.456;2023-12-04T04:54:39;100833.31;;;-1.08;100.00
58622;BME280;44389;51.578;5.456;2023-12-04T04:57:05;100829.13;;;-1.07;100.00
58622;BME280;44389;51.578;5.456;2023-12-04T04:59:30;100837.59;;;-1.07;100.00
58622;BME280;44389;51.578;5.456;2023-12-04T05:01:57;100830.50;;;-1.01;100.00
58622;BME280;44389;51.578;5.456;2023-12-04T05:04:22;100828.25;;;-1.08;100.00
58622;BME280;44389;51.578;5.456;2023-12-04T05:06:47;100822.44;;;-1.07;100.00
58622;BME280;44389;51.578;5.456;2023-12-04T05:09:13;100822.44;;;-1.07;100.00
58622;BME280;44389;51.578;5.456;2023-12-04T05:11:38;100824.97;;;-1.07;100.00
58622;BME280;44389;51.578;5.456;2023-12-04T05:14:03;100814.84;;;-1.07;100.00
58622;BME280;44389;51.578;5.456;2023-12-04T05:16:29;100823.19;;;-1.08;100.00
58622;BME280;44389;51.578;5.456;2023-12-04T05:18:54;100827.50;;;-1.07;100.00
58622;BME280;44389;51.578;5.456;2023-12-04T05:21:19;100815.72;;;-1.06;100.00
58622;BME280;44389;51.578;5.456;2023-12-04T05:23:45;100815.06;;;-1.04;100.00
58622;BME280;44389;51.578;5.456;2023-12-04T05:26:10;100817.59;;;-1.04;100.00
58622;BME280;44389;51.578;5.456;2023-12-04T05:28:35;100804.06;;;-1.04;100.00
58622;BME280;44389;51.578;5.456;2023-12-04T05:31:01;100794.72;;;-1.05;100.00
58622;BME280;44389;51.578;5.456;2023-12-04T05:33:26;100795.59;;;-1.05;100.00
58622;BME280;44389;51.578;5.456;2023-12-04T05:35:52;100797.25;;;-1.05;100.00
58622;BME280;44389;51.578;5.456;2023-12-04T05:38:18;100784.72;;;-1.04;100.00
58622;BME280;44389;51.578;5.456;2023-12-04T05:40:43;100786.47;;;-1.03;100.00
58622;BME280;44389;51.578;5.456;2023-12-04T05:43:09;100782.44;;;-1.01;100.00
58622;BME280;44389;51.578;5.456;2023-12-04T05:45:34;100784.97;;;-1.01;100.00
58622;BME280;44389;51.578;5.456;2023-12-04T05:47:59;100780.56;;;-1.03;100.00
58622;BME280;44389;51.578;5.456;2023-12-04T05:50:25;100773.06;;;-1.02;100.00
58622;BME280;44389;51.578;5.456;2023-12-04T05:52:50;100782.00;;;-0.95;100.00
58622;BME280;44389;51.578;5.456;2023-12-04T05:55:15;100788.25;;;-1.02;100.00
58622;BME280;44389;51.578;5.456;2023-12-04T05:57:41;100788.25;;;-1.02;100.00
58622;BME280;44389;51.578;5.456;2023-12-04T06:00:07;100790.03;;;-1.01;100.00
58622;BME280;44389;51.578;5.456;2023-12-04T06:02:42;100792.53;;;-1.01;100.00
58622;BME280;44389;51.578;5.456;2023-12-04T06:05:08;100774.84;;;-1.01;100.00
58622;BME280;44389;51.578;5.456;2023-12-04T06:07:34;100782.44;;;-1.01;100.00
58622;BME280;44389;51.578;5.456;2023-12-04T06:09:59;100769.00;;;-1.00;100.00
58622;BME280;44389;51.578;5.456;2023-12-04T06:12:24;100762.19;;;-1.01;100.00
58622;BME280;44389;51.578;5.456;2023-12-04T06:14:49;100761.41;;;-1.00;100.00
58622;BME280;44389;51.578;5.456;2023-12-04T06:17:16;100748.75;;;-1.00;100.00
58622;BME280;44389;51.578;5.456;2023-12-04T06:19:41;100746.38;;;-0.98;100.00
58622;BME280;44389;51.578;5.456;2023-12-04T06:22:06;100748.00;;;-0.98;100.00
58622;BME280;44389;51.578;5.456;2023-12-04T06:24:32;100741.31;;;-0.98;100.00
58622;BME280;44389;51.578;5.456;2023-12-04T06:26:58;100736.34;;;-0.96;100.00
58622;BME280;44389;51.578;5.456;2023-12-04T06:29:24;100729.53;;;-0.97;100.00
58622;BME280;44389;51.578;5.456;2023-12-04T06:31:50;100716.88;;;-0.97;100.00
58622;BME280;44389;51.578;5.456;2023-12-04T06:34:15;100719.63;;;-0.94;100.00
58622;BME280;44389;51.578;5.456;2023-12-04T06:36:41;100712.03;;;-0.94;100.00
58622;BME280;44389;51.578;5.456;2023-12-04T06:39:10;100704.44;;;-0.94;100.00
58622;BME280;44389;51.578;5.456;2023-12-04T06:41:40;100699.50;;;-0.93;100.00
58622;BME280;44389;51.578;5.456;2023-12-04T06:44:06;100690.91;;;-0.95;100.00
58622;BME280;44389;51.578;5.456;2023-12-04T06:46:34;100690.06;;;-0.95;100.00
58622;BME280;44389;51.578;5.456;2023-12-04T06:49:04;100679.94;;;-0.95;100.00
58622;BME280;44389;51.578;5.456;2023-12-04T06:51:29;100679.13;;;-0.94;100.00
58622;BME280;44389;51.578;5.456;2023-12-04T06:53:55;100675.84;;;-0.93;100.00
58622;BME280;44389;51.578;5.456;2023-12-04T06:56:20;100682.66;;;-0.92;100.00
58622;BME280;44389;51.578;5.456;2023-12-04T06:58:45;100678.63;;;-0.90;100.00
58622;BME280;44389;51.578;5.456;2023-12-04T07:01:10;100684.34;;;-0.93;100.00
58622;BME280;44389;51.578;5.456;2023-12-04T07:03:36;100690.25;;;-0.92;100.00
58622;BME280;44389;51.578;5.456;2023-12-04T07:06:01;100691.03;;;-0.93;100.00
58622;BME280;44389;51.578;5.456;2023-12-04T07:08:26;100685.97;;;-0.93;100.00
58622;BME280;44389;51.578;5.456;2023-12-04T07:10:52;100689.16;;;-0.96;100.00
58622;BME280;44389;51.578;5.456;2023-12-04T07:13:17;100695.09;;;-0.95;100.00
58622;BME280;44389;51.578;5.456;2023-12-04T07:15:42;100685.75;;;-0.96;100.00
58622;BME280;44389;51.578;5.456;2023-12-04T07:18:08;100675.75;;;-0.95;100.00
58622;BME280;44389;51.578;5.456;2023-12-04T07:20:33;100681.56;;;-0.96;100.00
58622;BME280;44389;51.578;5.456;2023-12-04T07:22:59;100676.50;;;-0.96;100.00
58622;BME280;44389;51.578;5.456;2023-12-04T07:25:24;100678.16;;;-0.96;100.00
58622;BME280;44389;51.578;5.456;2023-12-04T07:27:50;100684.09;;;-0.96;100.00
58622;BME280;44389;51.578;5.456;2023-12-04T07:30:15;100688.38;;;-0.95;100.00
58622;BME280;44389;51.578;5.456;2023-12-04T07:32:41;100692.44;;;-0.97;100.00
58622;BME280;44389;51.578;5.456;2023-12-04T07:35:06;100689.03;;;-0.97;100.00
58622;BME280;44389;51.578;5.456;2023-12-04T07:37:32;100678.94;;;-0.97;100.00
58622;BME280;44389;51.578;5.456;2023-12-04T07:39:57;100683.22;;;-0.96;100.00
58622;BME280;44389;51.578;5.456;2023-12-04T07:42:22;100682.47;;;-0.95;100.00
58622;BME280;44389;51.578;5.456;2023-12-04T07:44:48;100689.03;;;-0.97;100.00
58622;BME280;44389;51.578;5.456;2023-12-04T07:47:14;100690.06;;;-0.95;100.00
58622;BME280;44389;51.578;5.456;2023-12-04T07:49:40;100687.53;;;-0.95;100.00
58622;BME280;44389;51.578;5.456;2023-12-04T07:52:06;100691.78;;;-0.94;100.00
58622;BME280;44389;51.578;5.456;2023-12-04T07:54:32;100675.84;;;-0.93;100.00
58622;BME280;44389;51.578;5.456;2023-12-04T07:56:57;100675.09;;;-0.92;100.00
58622;BME280;44389;51.578;5.456;2023-12-04T07:59:23;100681.00;;;-0.92;100.00
58622;BME280;44389;51.578;5.456;2023-12-04T08:01:48;100671.03;;;-0.90;100.00
58622;BME280;44389;51.578;5.456;2023-12-04T08:04:13;100678.63;;;-0.90;100.00
58622;BME280;44389;51.578;5.456;2023-12-04T08:06:39;100666.06;;;-0.89;100.00
58622;BME280;44389;51.578;5.456;2023-12-04T08:09:04;100654.94;;;-0.91;100.00
58622;BME280;44389;51.578;5.456;2023-12-04T08:11:34;100654.19;;;-0.90;100.00
58622;BME280;44389;51.578;5.456;2023-12-04T08:13:59;100656.91;;;-0.87;100.00
58622;BME280;44389;51.578;5.456;2023-12-04T08:16:25;100656.06;;;-0.87;100.00
58622;BME280;44389;51.578;5.456;2023-12-04T08:18:51;100647.69;;;-0.86;100.00
58622;BME280;44389;51.578;5.456;2023-12-04T08:21:17;100647.16;;;-0.82;100.00
58622;BME280;44389;51.578;5.456;2023-12-04T08:23:42;100648.91;;;-0.81;100.00
58622;BME280;44389;51.578;5.456;2023-12-04T08:26:07;100645.28;;;-0.85;100.00
58622;BME280;44389;51.578;5.456;2023-12-04T08:28:33;100646.16;;;-0.84;100.00
58622;BME280;44389;51.578;5.456;2023-12-04T08:30:59;100642.66;;;-0.86;100.00
58622;BME280;44389;51.578;5.456;2023-12-04T08:33:24;100637.59;;;-0.86;100.00
58622;BME280;44389;51.578;5.456;2023-12-04T08:35:49;100630.19;;;-0.83;100.00
58622;BME280;44389;51.578;5.456;2023-12-04T08:38:16;100627.91;;;-0.80;100.00
58622;BME280;44389;51.578;5.456;2023-12-04T08:40:41;100627.91;;;-0.80;100.00
58622;BME280;44389;51.578;5.456;2023-12-04T08:43:08;100627.91;;;-0.80;100.00
58622;BME280;44389;51.578;5.456;2023-12-04T08:45:33;100618.00;;;-0.77;100.00
58622;BME280;44389;51.578;5.456;2023-12-04T08:47:58;100620.41;;;-0.78;100.00
58622;BME280;44389;51.578;5.456;2023-12-04T08:50:24;100611.16;;;-0.78;100.00
58622;BME280;44389;51.578;5.456;2023-12-04T08:52:50;100605.25;;;-0.78;100.00
58622;BME280;44389;51.578;5.456;2023-12-04T08:55:15;100603.69;;;-0.76;100.00
58622;BME280;44389;51.578;5.456;2023-12-04T08:57:41;100597.09;;;-0.74;100.00
58622;BME280;44389;51.578;5.456;2023-12-04T09:00:06;100601.38;;;-0.73;100.00
58622;BME280;44389;51.578;5.456;2023-12-04T09:02:33;100595.41;;;-0.74;100.00
58622;BME280;44389;51.578;5.456;2023-12-04T09:04:58;100599.72;;;-0.73;100.00
58622;BME280;44389;51.578;5.456;2023-12-04T09:07:24;100589.50;;;-0.74;100.00
58622;BME280;44389;51.578;5.456;2023-12-04T09:09:49;100585.44;;;-0.72;100.00
58622;BME280;44389;51.578;5.456;2023-12-04T09:12:14;100595.56;;;-0.72;100.00
58622;BME280;44389;51.578;5.456;2023-12-04T09:14:40;100589.69;;;-0.71;100.00
58622;BME280;44389;51.578;5.456;2023-12-04T09:17:05;100597.44;;;-0.70;100.00
58622;BME280;44389;51.578;5.456;2023-12-04T09:19:31;100598.28;;;-0.69;100.00
58622;BME280;44389;51.578;5.456;2023-12-04T09:21:56;100581.44;;;-0.69;100.00
58622;BME280;44389;51.578;5.456;2023-12-04T09:24:22;100585.84;;;-0.66;100.00
58622;BME280;44389;51.578;5.456;2023-12-04T09:26:48;100594.31;;;-0.65;100.00
58622;BME280;44389;51.578;5.456;2023-12-04T09:29:14;100585.19;;;-0.63;100.00
58622;BME280;44389;51.578;5.456;2023-12-04T09:31:40;100585.19;;;-0.63;100.00
58622;BME280;44389;51.578;5.456;2023-12-04T09:34:06;100585.41;;;-0.60;100.00
58622;BME280;44389;51.578;5.456;2023-12-04T09:36:31;100585.59;;;-0.57;100.00
58622;BME280;44389;51.578;5.456;2023-12-04T09:38:56;100582.22;;;-0.58;100.00
58622;BME280;44389;51.578;5.456;2023-12-04T09:41:21;100579.13;;;-0.54;100.00
58622;BME280;44389;51.578;5.456;2023-12-04T09:43:47;100573.94;;;-0.55;100.00
58622;BME280;44389;51.578;5.456;2023-12-04T09:46:14;100584.94;;;-0.55;100.00
58622;BME280;44389;51.578;5.456;2023-12-04T09:48:41;100585.19;;;-0.52;100.00
58622;BME280;44389;51.578;5.456;2023-12-04T09:51:08;100585.38;;;-0.48;100.00
58622;BME280;44389;51.578;5.456;2023-12-04T09:53:36;100582.94;;;-0.47;100.00
58622;BME280;44389;51.578;5.456;2023-12-04T09:56:03;100581.41;;;-0.45;100.00
58622;BME280;44389;51.578;5.456;2023-12-04T09:58:29;100578.13;;;-0.44;100.00
58622;BME280;44389;51.578;5.456;2023-12-04T10:00:58;100581.63;;;-0.42;100.00
58622;BME280;44389;51.578;5.456;2023-12-04T10:03:25;100578.31;;;-0.41;100.00
58622;BME280;44389;51.578;5.456;2023-12-04T10:05:50;100575.69;;;-0.42;100.00
58622;BME280;44389;51.578;5.456;2023-12-04T10:08:16;100563.13;;;-0.41;100.00
58622;BME280;44389;51.578;5.456;2023-12-04T10:10:42;100563.13;;;-0.41;100.00
58622;BME280;44389;51.578;5.456;2023-12-04T10:13:08;100564.00;;;-0.40;100.00
58622;BME280;44389;51.578;5.456;2023-12-04T10:15:33;100553.19;;;-0.38;100.00
58622;BME280;44389;51.578;5.456;2023-12-04T10:17:59;100551.47;;;-0.39;100.00
58622;BME280;44389;51.578;5.456;2023-12-04T10:20:24;100552.31;;;-0.38;100.00
58622;BME280;44389;51.578;5.456;2023-12-04T10:22:56;100551.47;;;-0.39;100.00
58622;BME280;44389;51.578;5.456;2023-12-04T10:25:23;100545.72;;;-0.36;100.00
58622;BME280;44389;51.578;5.456;2023-12-04T10:27:51;100536.47;;;-0.36;100.00
58622;BME280;44389;51.578;5.456;2023-12-04T10:30:26;100540.00;;;-0.34;100.00
58622;BME280;44389;51.578;5.456;2023-12-04T10:33:00;100529.06;;;-0.32;100.00
58622;BME280;44389;51.578;5.456;2023-12-04T10:35:30;100518.16;;;-0.31;100.00
58622;BME280;44389;51.578;5.456;2023-12-04T10:37:56;100506.50;;;-0.29;100.00
58622;BME280;44389;51.578;5.456;2023-12-04T10:40:25;100500.53;;;-0.30;100.00
58622;BME280;44389;51.578;5.456;2023-12-04T10:42:52;100506.50;;;-0.29;100.00
58622;BME280;44389;51.578;5.456;2023-12-04T10:45:38;100504.16;;;-0.26;100.00
58622;BME280;44389;51.578;5.456;2023-12-04T10:48:05;100493.38;;;-0.24;100.00
58622;BME280;44389;51.578;5.456;2023-12-04T10:50:41;100496.78;;;-0.23;100.00
58622;BME280;44389;51.578;5.456;2023-12-04T10:53:08;100491.72;;;-0.23;100.00
58622;BME280;44389;51.578;5.456;2023-12-04T10:55:34;100477.50;;;-0.21;100.00
58622;BME280;44389;51.578;5.456;2023-12-04T10:58:11;100480.91;;;-0.21;100.00
58622;BME280;44389;51.578;5.456;2023-12-04T11:00:44;100474.38;;;-0.17;100.00
58622;BME280;44389;51.578;5.456;2023-12-04T11:03:13;100470.31;;;-0.15;100.00
58622;BME280;44389;51.578;5.456;2023-12-04T11:05:41;100459.50;;;-0.12;100.00
58622;BME280;44389;51.578;5.456;2023-12-04T11:08:11;100459.69;;;-0.09;100.00
58622;BME280;44389;51.578;5.456;2023-12-04T11:10:56;100450.66;;;-0.06;100.00
58622;BME280;44389;51.578;5.456;2023-12-04T11:13:27;100455.94;;;-0.03;100.00
58622;BME280;44389;51.578;5.456;2023-12-04T11:16:02;100451.81;;;-0.01;100.00
58622;BME280;44389;51.578;5.456;2023-12-04T11:18:31;100453.59;;;0.01;100.00
58622;BME280;44389;51.578;5.456;2023-12-04T11:21:05;100444.41;;;0.03;100.00
58622;BME280;44389;51.578;5.456;2023-12-04T11:23:32;100448.94;;;0.07;100.00
58622;BME280;44389;51.578;5.456;2023-12-04T11:25:58;100443.72;;;0.05;100.00
58622;BME280;44389;51.578;5.456;2023-12-04T11:28:25;100438.78;;;0.07;100.00
58622;BME280;44389;51.578;5.456;2023-12-04T11:30:52;100438.00;;;0.08;100.00
58622;BME280;44389;51.578;5.456;2023-12-04T11:33:18;100432.91;;;0.08;100.00
58622;BME280;44389;51.578;5.456;2023-12-04T11:35:44;100438.00;;;0.08;100.00
58622;BME280;44389;51.578;5.456;2023-12-04T11:38:13;100431.38;;;0.10;100.00
58622;BME280;44389;51.578;5.456;2023-12-04T11:40:40;100429.63;;;0.09;100.00
58622;BME280;44389;51.578;5.456;2023-12-04T11:43:26;100420.47;;;0.11;100.00
58622;BME280;44389;51.578;5.456;2023-12-04T11:45:53;100417.03;;;0.10;100.00
58622;BME280;44389;51.578;5.456;2023-12-04T11:48:27;100417.94;;;0.11;100.00
58622;BME280;44389;51.578;5.456;2023-12-04T11:50:56;100412.88;;;0.11;100.00
58622;BME280;44389;51.578;5.456;2023-12-04T11:53:22;100408.88;;;0.14;100.00
58622;BME280;44389;51.578;5.456;2023-12-04T11:55:47;100407.22;;;0.15;100.00
58622;BME280;44389;51.578;5.456;2023-12-04T11:58:12;100403.13;;;0.17;100.00
58622;BME280;44389;51.578;5.456;2023-12-04T12:00:38;100391.22;;;0.16;100.00
58622;BME280;44389;51.578;5.456;2023-12-04T12:03:06;100385.19;;;0.14;100.00
58622;BME280;44389;51.578;5.456;2023-12-04T12:05:33;100384.22;;;0.12;100.00
58622;BME280;44389;51.578;5.456;2023-12-04T12:08:02;100379.84;;;0.09;100.00
58622;BME280;44389;51.578;5.456;2023-12-04T12:10:29;100366.19;;;0.07;100.00
58622;BME280;44389;51.578;5.456;2023-12-04T12:12:55;100356.91;;;0.08;100.00
58622;BME280;44389;51.578;5.456;2023-12-04T12:15:20;100356.03;;;0.07;100.00
58622;BME280;44389;51.578;5.456;2023-12-04T12:17:45;100343.38;;;0.07;100.00
58622;BME280;44389;51.578;5.456;2023-12-04T12:20:13;100341.69;;;0.08;100.00
58622;BME280;44389;51.578;5.456;2023-12-04T12:22:39;100341.69;;;0.08;100.00
58622;BME280;44389;51.578;5.456;2023-12-04T12:25:10;100338.41;;;0.09;100.00
58622;BME280;44389;51.578;5.456;2023-12-04T12:27:36;100329.25;;;0.11;100.00
58622;BME280;44389;51.578;5.456;2023-12-04T12:30:02;100326.50;;;0.08;100.00
58622;BME280;44389;51.578;5.456;2023-12-04T12:32:32;100312.47;;;0.13;100.00
58622;BME280;44389;51.578;5.456;2023-12-04T12:34:58;100319.38;;;0.15;100.00